createdAt,value
2018-03-01T00:00:51.486Z,-10.00
2018-03-01T00:01:51.527Z,-10.05
2018-03-01T00:02:51.474Z,-9.91
2018-03-01T00:03:51.463Z,-10.02
2018-03-01T00:04:51.451Z,-10.05
2018-03-01T00:05:51.433Z,-10.09
2018-03-01T00:06:51.462Z,-10.03
2018-03-01T00:07:51.406Z,-10.03
2018-03-01T00:08:51.400Z,-10.00
2018-03-01T00:09:51.382Z,-10.03
2018-03-01T00:10:51.370Z,-10.02
2018-03-01T00:11:51.398Z,-10.00
2018-03-01T00:12:51.346Z,-10.02
2018-03-01T00:13:51.330Z,-10.02
2018-03-01T00:14:51.316Z,-10.10
2018-03-01T00:15:51.304Z,-10.08
2018-03-01T00:16:51.332Z,-10.00
2018-03-01T00:17:51.282Z,-9.94
2018-03-01T00:18:51.265Z,-10.08
2018-03-01T00:19:51.247Z,-10.06
2018-03-01T00:20:51.896Z,-10.05
2018-03-01T00:21:51.271Z,-9.97
2018-03-01T00:22:51.210Z,-10.03
2018-03-01T00:23:51.199Z,-9.98
2018-03-01T00:24:51.184Z,-10.02
2018-03-01T00:25:51.215Z,-10.00
2018-03-01T00:26:51.212Z,-10.03
2018-03-01T00:27:51.156Z,-10.02
2018-03-01T00:28:51.139Z,-10.08
2018-03-01T00:29:51.135Z,-10.10
2018-03-01T00:30:51.116Z,-10.02
2018-03-01T00:31:51.143Z,-10.09
2018-03-01T00:32:51.088Z,-10.23
2018-03-01T00:33:51.077Z,-10.24
2018-03-01T00:34:51.065Z,-10.23
2018-03-01T00:35:51.050Z,-10.31
2018-03-01T00:36:51.076Z,-10.21
2018-03-01T00:37:51.027Z,-10.27
2018-03-01T00:38:51.010Z,-10.30
2018-03-01T00:39:50.998Z,-10.34
2018-03-01T00:40:50.983Z,-10.41
2018-03-01T00:41:51.655Z,-10.45
2018-03-01T00:42:50.982Z,-10.34
2018-03-01T00:43:50.942Z,-10.33
2018-03-01T00:44:50.932Z,-10.45
2018-03-01T00:45:50.919Z,-10.30
2018-03-01T00:46:50.944Z,-10.41
2018-03-01T00:47:50.893Z,-10.48
2018-03-01T00:48:50.879Z,-10.41
2018-03-01T00:49:50.871Z,-10.33
2018-03-01T00:50:50.854Z,-10.38
2018-03-01T00:51:50.879Z,-10.26
2018-03-01T00:52:50.826Z,-10.30
2018-03-01T00:53:50.818Z,-10.27
2018-03-01T00:54:50.802Z,-10.38
2018-03-01T00:55:50.785Z,-10.34
2018-03-01T00:56:50.821Z,-10.36
2018-03-01T00:57:50.762Z,-10.34
2018-03-01T00:58:50.748Z,-10.30
2018-03-01T00:59:50.733Z,-10.30
2018-03-01T01:00:50.723Z,-10.30
2018-03-01T01:01:50.749Z,-10.38
2018-03-01T01:02:50.693Z,-10.30
2018-03-01T01:03:50.680Z,-10.30
2018-03-01T01:04:50.965Z,-10.42
2018-03-01T01:05:50.656Z,-10.34
2018-03-01T01:06:50.695Z,-10.38
2018-03-01T01:07:50.667Z,-10.33
2018-03-01T01:08:50.616Z,-10.41
2018-03-01T01:09:50.604Z,-10.29
2018-03-01T01:10:50.590Z,-10.47
2018-03-01T01:11:50.579Z,-10.51
2018-03-01T01:12:50.604Z,-10.54
2018-03-01T01:13:50.552Z,-10.55
2018-03-01T01:14:50.537Z,-10.52
2018-03-01T01:15:50.524Z,-10.47
2018-03-01T01:16:50.511Z,-10.54
2018-03-01T01:17:50.544Z,-10.55
2018-03-01T01:18:50.518Z,-10.52
2018-03-01T01:19:50.470Z,-10.44
2018-03-01T01:20:50.454Z,-10.42
2018-03-01T01:21:50.435Z,-10.51
2018-03-01T01:22:50.462Z,-10.60
2018-03-01T01:23:50.411Z,-10.63
2018-03-01T01:24:50.395Z,-10.66
2018-03-01T01:25:50.384Z,-10.63
2018-03-01T01:26:50.369Z,-10.59
2018-03-01T01:27:50.399Z,-10.65
2018-03-01T01:28:50.343Z,-10.62
2018-03-01T01:29:50.331Z,-10.62
2018-03-01T01:30:50.317Z,-10.70
2018-03-01T01:31:50.303Z,-10.55
2018-03-01T01:32:50.331Z,-10.66
2018-03-01T01:33:50.278Z,-10.60
2018-03-01T01:34:50.263Z,-10.70
2018-03-01T01:35:50.250Z,-10.72
2018-03-01T01:36:50.238Z,-10.70
2018-03-01T01:37:50.269Z,-10.70
2018-03-01T01:38:50.213Z,-10.66
2018-03-01T01:39:50.196Z,-10.70
2018-03-01T01:40:50.183Z,-10.73
2018-03-01T01:41:50.170Z,-10.62
2018-03-01T01:42:50.202Z,-10.66
2018-03-01T01:43:50.147Z,-10.76
2018-03-01T01:44:50.131Z,-10.73
2018-03-01T01:45:50.116Z,-10.77
2018-03-01T01:46:50.104Z,-10.81
2018-03-01T01:47:50.133Z,-10.81
2018-03-01T01:48:50.080Z,-10.87
2018-03-01T01:49:50.062Z,-10.91
2018-03-01T01:50:50.053Z,-10.96
2018-03-01T01:51:50.037Z,-10.83
2018-03-01T01:52:50.061Z,-10.91
2018-03-01T01:53:50.009Z,-10.88
2018-03-01T01:54:49.997Z,-10.92
2018-03-01T01:55:49.986Z,-10.96
2018-03-01T01:56:49.969Z,-11.03
2018-03-01T01:57:49.999Z,-11.03
2018-03-01T01:58:49.945Z,-11.14
2018-03-01T01:59:49.931Z,-11.09
2018-03-01T02:00:49.912Z,-11.01
2018-03-01T02:01:49.903Z,-11.08
2018-03-01T02:02:49.925Z,-11.06
2018-03-01T02:03:49.873Z,-11.03
2018-03-01T02:04:49.859Z,-11.01
2018-03-01T02:05:49.845Z,-11.06
2018-03-01T02:06:49.833Z,-10.98
2018-03-01T02:07:49.858Z,-11.19
2018-03-01T02:08:49.806Z,-11.01
2018-03-01T02:09:49.794Z,-11.02
2018-03-01T02:10:49.790Z,-10.99
2018-03-01T02:11:49.765Z,-10.98
2018-03-01T02:12:49.793Z,-11.05
2018-03-01T02:13:49.740Z,-11.06
2018-03-01T02:14:49.725Z,-11.03
2018-03-01T02:15:49.711Z,-11.01
2018-03-01T02:16:49.697Z,-10.98
2018-03-01T02:17:49.744Z,-10.94
2018-03-01T02:18:49.671Z,-11.02
2018-03-01T02:19:49.657Z,-11.05
2018-03-01T02:20:50.495Z,-11.11
2018-03-01T02:21:49.628Z,-11.14
2018-03-01T02:22:49.615Z,-11.20
2018-03-01T02:23:49.644Z,-11.24
2018-03-01T02:24:49.590Z,-11.20
2018-03-01T02:25:50.079Z,-11.20
2018-03-01T02:26:49.560Z,-11.16
2018-03-01T02:27:49.585Z,-11.20
2018-03-01T02:28:49.534Z,-11.23
2018-03-01T02:29:49.521Z,-11.14
2018-03-01T02:30:49.510Z,-11.16
2018-03-01T02:31:49.494Z,-11.20
2018-03-01T02:32:49.522Z,-11.21
2018-03-01T02:33:49.467Z,-11.17
2018-03-01T02:34:49.453Z,-11.21
2018-03-01T02:35:49.441Z,-11.23
2018-03-01T02:36:49.425Z,-11.16
2018-03-01T02:37:49.451Z,-11.20
2018-03-01T02:38:49.397Z,-11.23
2018-03-01T02:39:49.382Z,-11.23
2018-03-01T02:40:49.370Z,-11.16
2018-03-01T02:41:49.355Z,-11.23
2018-03-01T02:42:49.392Z,-11.14
2018-03-01T02:43:49.329Z,-11.17
2018-03-01T02:44:49.315Z,-11.12
2018-03-01T02:45:49.302Z,-11.09
2018-03-01T02:46:49.291Z,-11.16
2018-03-01T02:47:49.317Z,-11.12
2018-03-01T02:48:49.270Z,-11.17
2018-03-01T02:49:49.247Z,-11.05
2018-03-01T02:50:49.233Z,-11.14
2018-03-01T02:51:49.214Z,-11.11
2018-03-01T02:52:49.248Z,-11.16
2018-03-01T02:53:49.192Z,-11.19
2018-03-01T02:54:49.175Z,-11.24
2018-03-01T02:55:49.164Z,-11.23
2018-03-01T02:56:49.149Z,-11.27
2018-03-01T02:57:49.182Z,-11.17
2018-03-01T02:58:49.125Z,-11.21
2018-03-01T02:59:49.108Z,-11.23
2018-03-01T03:00:49.095Z,-11.17
2018-03-01T03:01:49.084Z,-11.21
2018-03-01T03:02:49.109Z,-11.21
2018-03-01T03:03:49.098Z,-11.19
2018-03-01T03:04:49.044Z,-11.19
2018-03-01T03:05:49.026Z,-11.21
2018-03-01T03:06:49.015Z,-11.23
2018-03-01T03:07:49.001Z,-11.19
2018-03-01T03:08:49.028Z,-11.19
2018-03-01T03:09:48.974Z,-11.19
2018-03-01T03:10:48.959Z,-11.19
2018-03-01T03:11:48.950Z,-11.17
2018-03-01T03:12:48.972Z,-11.27
2018-03-01T03:13:48.955Z,-11.23
2018-03-01T03:14:48.974Z,-11.31
2018-03-01T03:15:48.887Z,-11.20
2018-03-01T03:16:48.875Z,-11.21
2018-03-01T03:17:48.864Z,-11.29
2018-03-01T03:18:48.892Z,-11.26
2018-03-01T03:19:48.833Z,-11.31
2018-03-01T03:20:48.818Z,-11.29
2018-03-01T03:21:48.809Z,-11.21
2018-03-01T03:22:48.792Z,-11.35
2018-03-01T03:23:48.821Z,-11.23
2018-03-01T03:24:48.763Z,-11.30
2018-03-01T03:25:48.751Z,-11.35
2018-03-01T03:26:48.735Z,-11.26
2018-03-01T03:27:48.720Z,-11.34
2018-03-01T03:28:48.758Z,-11.26
2018-03-01T03:29:48.700Z,-11.19
2018-03-01T03:30:48.684Z,-11.14
2018-03-01T03:31:48.668Z,-11.34
2018-03-01T03:32:48.714Z,-11.17
2018-03-01T03:33:48.678Z,-11.29
2018-03-01T03:34:48.626Z,-11.19
2018-03-01T03:35:48.613Z,-11.30
2018-03-01T03:36:48.600Z,-11.29
2018-03-01T03:37:48.588Z,-11.19
2018-03-01T03:38:48.609Z,-11.31
2018-03-01T03:39:48.559Z,-11.21
2018-03-01T03:40:48.549Z,-11.31
2018-03-01T03:41:48.529Z,-11.29
2018-03-01T03:42:48.515Z,-11.29
2018-03-01T03:43:48.541Z,-11.21
2018-03-01T03:44:48.561Z,-11.30
2018-03-01T03:45:48.474Z,-11.30
2018-03-01T03:46:48.459Z,-11.30
2018-03-01T03:47:48.445Z,-11.24
2018-03-01T03:48:48.473Z,-11.29
2018-03-01T03:49:48.418Z,-11.29
2018-03-01T03:50:48.405Z,-11.35
2018-03-01T03:51:48.391Z,-11.41
2018-03-01T03:52:48.380Z,-11.35
2018-03-01T03:53:48.407Z,-11.38
2018-03-01T03:54:48.348Z,-11.37
2018-03-01T03:55:48.335Z,-11.40
2018-03-01T03:56:48.319Z,-11.37
2018-03-01T03:57:48.309Z,-11.34
2018-03-01T03:58:48.824Z,-11.34
2018-03-01T03:59:48.281Z,-11.42
2018-03-01T04:00:48.267Z,-11.30
2018-03-01T04:01:48.253Z,-11.31
2018-03-01T04:02:48.285Z,-11.35
2018-03-01T04:03:48.271Z,-11.19
2018-03-01T04:04:48.212Z,-11.30
2018-03-01T04:05:48.197Z,-11.21
2018-03-01T04:06:48.183Z,-11.21
2018-03-01T04:07:48.169Z,-11.34
2018-03-01T04:08:48.199Z,-11.31
2018-03-01T04:09:48.146Z,-11.31
2018-03-01T04:10:48.128Z,-11.30
2018-03-01T04:11:48.115Z,-11.23
2018-03-01T04:12:48.103Z,-11.16
2018-03-01T04:13:48.133Z,-11.26
2018-03-01T04:14:48.075Z,-11.24
2018-03-01T04:15:48.062Z,-11.17
2018-03-01T04:16:48.048Z,-11.19
2018-03-01T04:17:48.074Z,-11.20
2018-03-01T04:18:48.019Z,-11.31
2018-03-01T04:19:48.045Z,-11.17
2018-03-01T04:20:47.992Z,-11.19
2018-03-01T04:21:47.978Z,-11.21
2018-03-01T04:22:47.963Z,-11.19
2018-03-01T04:23:47.949Z,-11.23
2018-03-01T04:24:47.976Z,-11.21
2018-03-01T04:25:47.922Z,-11.21
2018-03-01T04:26:47.915Z,-11.19
2018-03-01T04:27:47.897Z,-11.30
2018-03-01T04:28:47.885Z,-11.21
2018-03-01T04:29:47.915Z,-11.38
2018-03-01T04:30:47.855Z,-11.26
2018-03-01T04:31:47.844Z,-11.27
2018-03-01T04:32:47.867Z,-11.40
2018-03-01T04:33:47.827Z,-11.29
2018-03-01T04:34:47.849Z,-11.29
2018-03-01T04:35:47.786Z,-11.19
2018-03-01T04:36:47.775Z,-11.27
2018-03-01T04:37:47.802Z,-11.26
2018-03-01T04:38:47.750Z,-11.21
2018-03-01T04:39:47.774Z,-11.34
2018-03-01T04:40:47.720Z,-11.29
2018-03-01T04:41:47.694Z,-11.35
2018-03-01T04:42:47.686Z,-11.34
2018-03-01T04:43:47.663Z,-11.37
2018-03-01T04:44:48.240Z,-11.40
2018-03-01T04:45:47.636Z,-11.44
2018-03-01T04:46:47.624Z,-11.45
2018-03-01T04:47:47.652Z,-11.31
2018-03-01T04:48:47.596Z,-11.52
2018-03-01T04:49:47.622Z,-11.50
2018-03-01T04:50:47.571Z,-11.44
2018-03-01T04:51:47.557Z,-11.53
2018-03-01T04:52:47.543Z,-11.38
2018-03-01T04:53:47.531Z,-11.29
2018-03-01T04:54:47.561Z,-11.38
2018-03-01T04:55:47.501Z,-11.38
2018-03-01T04:56:47.489Z,-11.48
2018-03-01T04:57:47.510Z,-11.44
2018-03-01T04:58:47.463Z,-11.50
2018-03-01T04:59:47.445Z,-11.52
2018-03-01T05:00:47.436Z,-11.41
2018-03-01T05:01:47.459Z,-11.38
2018-03-01T05:02:47.404Z,-11.41
2018-03-01T05:03:47.391Z,-11.42
2018-03-01T05:04:47.379Z,-11.50
2018-03-01T05:05:47.362Z,-11.44
2018-03-01T05:06:47.388Z,-11.41
2018-03-01T05:07:47.335Z,-11.34
2018-03-01T05:08:47.322Z,-11.52
2018-03-01T05:09:47.306Z,-11.50
2018-03-01T05:10:47.295Z,-11.61
2018-03-01T05:11:47.316Z,-11.62
2018-03-01T05:12:47.266Z,-11.55
2018-03-01T05:13:47.249Z,-11.65
2018-03-01T05:14:47.243Z,-11.62
2018-03-01T05:15:47.222Z,-11.61
2018-03-01T05:16:47.249Z,-11.56
2018-03-01T05:17:47.195Z,-11.63
2018-03-01T05:18:47.180Z,-11.65
2018-03-01T05:19:47.170Z,-11.63
2018-03-01T05:20:47.153Z,-11.62
2018-03-01T05:21:47.179Z,-11.69
2018-03-01T05:22:47.126Z,-11.68
2018-03-01T05:23:47.117Z,-11.62
2018-03-01T05:24:47.098Z,-11.72
2018-03-01T05:25:47.847Z,-11.68
2018-03-01T05:26:47.114Z,-11.68
2018-03-01T05:27:47.056Z,-11.65
2018-03-01T05:28:47.042Z,-11.62
2018-03-01T05:29:47.029Z,-11.69
2018-03-01T05:30:47.015Z,-11.66
2018-03-01T05:31:47.037Z,-11.69
2018-03-01T05:32:46.986Z,-11.61
2018-03-01T05:33:46.973Z,-11.65
2018-03-01T05:34:46.958Z,-11.72
2018-03-01T05:35:46.947Z,-11.86
2018-03-01T05:36:46.966Z,-11.69
2018-03-01T05:37:46.918Z,-11.79
2018-03-01T05:38:46.903Z,-11.77
2018-03-01T05:39:46.889Z,-11.73
2018-03-01T05:40:46.873Z,-11.82
2018-03-01T05:41:46.898Z,-11.80
2018-03-01T05:42:46.860Z,-11.68
2018-03-01T05:43:46.832Z,-11.82
2018-03-01T05:44:46.820Z,-11.84
2018-03-01T05:45:46.805Z,-11.82
2018-03-01T05:46:46.832Z,-11.80
2018-03-01T05:47:46.778Z,-11.72
2018-03-01T05:48:46.763Z,-11.73
2018-03-01T05:49:47.711Z,-11.74
2018-03-01T05:50:46.733Z,-11.74
2018-03-01T05:51:46.758Z,-11.82
2018-03-01T05:52:46.711Z,-11.72
2018-03-01T05:53:46.700Z,-11.72
2018-03-01T05:54:46.683Z,-11.72
2018-03-01T05:55:46.662Z,-11.76
2018-03-01T05:56:46.692Z,-11.73
2018-03-01T05:57:46.637Z,-11.77
2018-03-01T05:58:46.621Z,-11.76
2018-03-01T05:59:46.604Z,-11.72
2018-03-01T06:00:46.595Z,-11.66
2018-03-01T06:01:46.630Z,-11.69
2018-03-01T06:02:46.565Z,-11.74
2018-03-01T06:03:46.551Z,-11.74
2018-03-01T06:04:46.537Z,-11.76
2018-03-01T06:05:46.534Z,-11.79
2018-03-01T06:06:46.546Z,-11.76
2018-03-01T06:07:46.497Z,-11.79
2018-03-01T06:08:46.480Z,-11.62
2018-03-01T06:09:46.464Z,-11.65
2018-03-01T06:10:46.453Z,-11.72
2018-03-01T06:11:46.487Z,-11.68
2018-03-01T06:12:46.424Z,-11.69
2018-03-01T06:13:46.408Z,-11.69
2018-03-01T06:14:46.397Z,-11.73
2018-03-01T06:15:46.381Z,-11.66
2018-03-01T06:16:46.407Z,-11.68
2018-03-01T06:17:46.394Z,-11.68
2018-03-01T06:18:46.342Z,-11.72
2018-03-01T06:19:46.328Z,-11.76
2018-03-01T06:20:46.310Z,-11.65
2018-03-01T06:21:46.299Z,-11.66
2018-03-01T06:22:46.328Z,-11.61
2018-03-01T06:23:46.269Z,-11.66
2018-03-01T06:24:46.255Z,-11.66
2018-03-01T06:25:46.248Z,-11.53
2018-03-01T06:26:46.264Z,-11.53
2018-03-01T06:27:46.213Z,-11.53
2018-03-01T06:28:46.242Z,-11.58
2018-03-01T06:29:46.188Z,-11.44
2018-03-01T06:30:46.171Z,-11.59
2018-03-01T06:31:46.159Z,-11.53
2018-03-01T06:32:46.185Z,-11.44
2018-03-01T06:33:46.133Z,-11.47
2018-03-01T06:34:46.115Z,-11.40
2018-03-01T06:35:46.102Z,-11.42
2018-03-01T06:36:46.092Z,-11.41
2018-03-01T06:37:46.111Z,-11.31
2018-03-01T06:38:46.063Z,-11.41
2018-03-01T06:39:46.091Z,-11.40
2018-03-01T06:40:46.202Z,-11.29
2018-03-01T06:41:46.093Z,-11.24
2018-03-01T06:42:46.058Z,-11.14
2018-03-01T06:43:45.997Z,-10.77
2018-03-01T06:44:45.981Z,-10.73
2018-03-01T06:45:45.966Z,-10.31
2018-03-01T06:46:45.950Z,-10.58
2018-03-01T06:47:45.976Z,-10.31
2018-03-01T06:48:45.968Z,-10.08
2018-03-01T06:49:45.914Z,-10.09
2018-03-01T06:50:46.854Z,-10.00
2018-03-01T06:51:45.886Z,-9.74
2018-03-01T06:52:45.879Z,-9.84
2018-03-01T06:53:45.907Z,-9.95
2018-03-01T06:54:45.849Z,-9.87
2018-03-01T06:55:45.838Z,-9.74
2018-03-01T06:56:45.825Z,-9.53
2018-03-01T06:57:45.814Z,-9.76
2018-03-01T06:58:45.840Z,-9.69
2018-03-01T06:59:45.795Z,-9.71
2018-03-01T07:00:45.780Z,-9.64
2018-03-01T07:01:45.766Z,-9.33
2018-03-01T07:02:45.757Z,-9.23
2018-03-01T07:03:45.788Z,-9.19
2018-03-01T07:04:46.442Z,-9.56
2018-03-01T07:05:45.727Z,-9.53
2018-03-01T07:06:45.715Z,-9.26
2018-03-01T07:07:45.706Z,-9.20
2018-03-01T07:08:45.730Z,-9.27
2018-03-01T07:09:45.686Z,-9.15
2018-03-01T07:10:45.674Z,-9.15
2018-03-01T07:11:45.661Z,-9.20
2018-03-01T07:12:45.655Z,-8.99
2018-03-01T07:13:45.682Z,-9.10
2018-03-01T07:14:45.633Z,-9.13
2018-03-01T07:15:45.626Z,-8.81
2018-03-01T07:16:45.624Z,-8.80
2018-03-01T07:17:45.654Z,-9.09
2018-03-01T07:18:45.597Z,-9.09
2018-03-01T07:19:45.594Z,-8.89
2018-03-01T07:20:45.587Z,-8.98
2018-03-01T07:21:45.644Z,-8.98
2018-03-01T07:22:45.606Z,-9.16
2018-03-01T07:23:45.555Z,-9.23
2018-03-01T07:24:45.546Z,-9.12
2018-03-01T07:25:45.536Z,-8.86
2018-03-01T07:26:45.529Z,-8.65
2018-03-01T07:27:45.564Z,-8.86
2018-03-01T07:28:45.511Z,-8.80
2018-03-01T07:29:45.502Z,-9.10
2018-03-01T07:30:45.497Z,-8.91
2018-03-01T07:31:45.483Z,-9.04
2018-03-01T07:32:45.517Z,-9.08
2018-03-01T07:33:45.469Z,-8.62
2018-03-01T07:34:45.463Z,-8.48
2018-03-01T07:35:45.455Z,-8.74
2018-03-01T07:36:45.446Z,-8.62
2018-03-01T07:37:45.482Z,-8.73
2018-03-01T07:38:45.434Z,-8.44
2018-03-01T07:39:45.424Z,-8.38
2018-03-01T07:40:45.419Z,-8.08
2018-03-01T07:41:45.410Z,-7.94
2018-03-01T07:42:45.442Z,-8.09
2018-03-01T07:43:45.396Z,-8.66
2018-03-01T07:44:45.389Z,-8.80
2018-03-01T07:45:45.382Z,-8.81
2018-03-01T07:46:45.376Z,-8.70
2018-03-01T07:47:45.406Z,-8.68
2018-03-01T07:48:45.364Z,-8.37
2018-03-01T07:49:45.357Z,-8.56
2018-03-01T07:50:45.350Z,-8.68
2018-03-01T07:51:45.341Z,-8.44
2018-03-01T07:52:45.375Z,-8.32
2018-03-01T07:53:45.332Z,-8.20
2018-03-01T07:54:45.324Z,-7.98
2018-03-01T07:55:45.317Z,-7.87
2018-03-01T07:56:45.313Z,-7.94
2018-03-01T07:57:45.346Z,-7.80
2018-03-01T07:58:45.301Z,-7.79
2018-03-01T07:59:45.293Z,-7.45
2018-03-01T08:00:45.287Z,-6.90
2018-03-01T08:01:45.281Z,-7.66
2018-03-01T08:02:45.319Z,-7.99
2018-03-01T08:03:45.270Z,-7.56
2018-03-01T08:04:45.267Z,-8.16
2018-03-01T08:05:45.262Z,-7.87
2018-03-01T08:06:45.259Z,-7.77
2018-03-01T08:07:45.293Z,-7.95
2018-03-01T08:08:45.244Z,-7.49
2018-03-01T08:09:45.240Z,-8.29
2018-03-01T08:10:45.251Z,-7.91
2018-03-01T08:11:45.271Z,-7.95
2018-03-01T08:12:45.228Z,-7.70
2018-03-01T08:13:45.223Z,-7.62
2018-03-01T08:14:45.220Z,-8.08
2018-03-01T08:15:45.213Z,-7.66
2018-03-01T08:16:45.283Z,-7.84
2018-03-01T08:17:45.207Z,-7.69
2018-03-01T08:18:45.203Z,-7.45
2018-03-01T08:19:45.197Z,-7.56
2018-03-01T08:20:45.193Z,-7.30
2018-03-01T08:21:45.233Z,-7.26
2018-03-01T08:22:45.188Z,-7.77
2018-03-01T08:23:45.226Z,-7.70
2018-03-01T08:24:45.179Z,-6.79
2018-03-01T08:25:45.174Z,-6.74
2018-03-01T08:26:45.171Z,-6.97
2018-03-01T08:27:45.206Z,-6.94
2018-03-01T08:28:45.165Z,-6.59
2018-03-01T08:29:45.160Z,-6.73
2018-03-01T08:30:45.157Z,-6.88
2018-03-01T08:31:45.160Z,-6.88
2018-03-01T08:32:45.195Z,-6.94
2018-03-01T08:33:45.149Z,-6.87
2018-03-01T08:34:45.148Z,-7.08
2018-03-01T08:35:45.143Z,-6.88
2018-03-01T08:36:45.140Z,-6.94
2018-03-01T08:37:45.180Z,-6.99
2018-03-01T08:38:45.176Z,-6.69
2018-03-01T08:39:45.131Z,-6.90
2018-03-01T08:40:45.131Z,-6.55
2018-03-01T08:41:45.126Z,-6.36
2018-03-01T08:42:45.127Z,-6.42
2018-03-01T08:43:45.164Z,-6.55
2018-03-01T08:44:45.119Z,-6.54
2018-03-01T08:45:45.365Z,-6.59
2018-03-01T08:46:45.117Z,-6.18
2018-03-01T08:47:45.117Z,-6.48
2018-03-01T08:48:45.166Z,-6.69
2018-03-01T08:49:45.113Z,-6.40
2018-03-01T08:50:45.108Z,-6.39
2018-03-01T08:51:45.104Z,-6.11
2018-03-01T08:52:45.145Z,-5.98
2018-03-01T08:53:45.110Z,-5.92
2018-03-01T08:54:45.103Z,-5.76
2018-03-01T08:55:45.098Z,-6.05
2018-03-01T08:56:45.097Z,-5.65
2018-03-01T08:57:45.136Z,-5.61
2018-03-01T08:58:45.094Z,-6.13
2018-03-01T08:59:45.095Z,-5.69
2018-03-01T09:00:45.105Z,-6.08
2018-03-01T09:01:45.092Z,-5.72
2018-03-01T09:02:45.134Z,-5.40
2018-03-01T09:03:45.129Z,-6.15
2018-03-01T09:04:45.085Z,-5.90
2018-03-01T09:05:45.085Z,-5.63
2018-03-01T09:06:45.086Z,-5.59
2018-03-01T09:07:45.080Z,-5.65
2018-03-01T09:08:45.116Z,-5.70
2018-03-01T09:09:45.081Z,-5.34
2018-03-01T09:10:45.081Z,-4.48
2018-03-01T09:11:45.079Z,-4.79
2018-03-01T09:12:45.075Z,-5.37
2018-03-01T09:13:45.117Z,-5.12
2018-03-01T09:14:45.073Z,-5.25
2018-03-01T09:15:45.073Z,-5.52
2018-03-01T09:16:45.074Z,-5.74
2018-03-01T09:17:45.075Z,-5.76
2018-03-01T09:18:45.118Z,-5.40
2018-03-01T09:19:45.696Z,-5.19
2018-03-01T09:20:45.074Z,-5.44
2018-03-01T09:21:45.072Z,-5.34
2018-03-01T09:22:45.091Z,-5.55
2018-03-01T09:23:45.117Z,-5.55
2018-03-01T09:24:45.133Z,-5.30
2018-03-01T09:25:45.075Z,-5.26
2018-03-01T09:26:45.073Z,-5.30
2018-03-01T09:27:45.074Z,-5.51
2018-03-01T09:28:45.073Z,-5.23
2018-03-01T09:29:45.113Z,-5.33
2018-03-01T09:30:45.074Z,-5.23
2018-03-01T09:31:45.078Z,-5.17
2018-03-01T09:32:45.077Z,-4.94
2018-03-01T09:33:45.123Z,-4.95
2018-03-01T09:34:45.076Z,-4.57
2018-03-01T09:35:45.076Z,-4.61
2018-03-01T09:36:45.077Z,-4.12
2018-03-01T09:37:45.078Z,-4.47
2018-03-01T09:38:45.298Z,-4.61
2018-03-01T09:39:45.214Z,-5.04
2018-03-01T09:40:45.079Z,-5.11
2018-03-01T09:41:45.085Z,-4.86
2018-03-01T09:42:45.082Z,-4.48
2018-03-01T09:43:45.120Z,-4.14
2018-03-01T09:44:45.120Z,-4.55
2018-03-01T09:45:45.085Z,-4.46
2018-03-01T09:46:45.083Z,-4.33
2018-03-01T09:47:45.088Z,-4.54
2018-03-01T09:48:45.134Z,-5.07
2018-03-01T09:49:45.089Z,-5.00
2018-03-01T09:50:45.090Z,-5.22
2018-03-01T09:51:45.096Z,-5.25
2018-03-01T09:52:45.093Z,-4.86
2018-03-01T09:53:45.138Z,-4.40
2018-03-01T09:54:45.103Z,-4.38
2018-03-01T09:55:45.096Z,-4.15
2018-03-01T09:56:45.097Z,-4.46
2018-03-01T09:57:45.102Z,-4.69
2018-03-01T09:58:45.138Z,-4.82
2018-03-01T09:59:45.866Z,-4.89
2018-03-01T10:00:45.121Z,-4.66
2018-03-01T10:01:45.107Z,-3.96
2018-03-01T10:02:45.112Z,-4.33
2018-03-01T10:03:45.147Z,-4.43
2018-03-01T10:04:45.114Z,-3.98
2018-03-01T10:05:45.116Z,-4.07
2018-03-01T10:06:45.114Z,-4.33
2018-03-01T10:07:45.118Z,-4.44
2018-03-01T10:08:45.165Z,-4.05
2018-03-01T10:09:45.122Z,-3.99
2018-03-01T10:10:45.125Z,-3.56
2018-03-01T10:11:45.140Z,-3.28
2018-03-01T10:12:45.127Z,-4.05
2018-03-01T10:13:45.176Z,-4.23
2018-03-01T10:14:45.135Z,-4.11
2018-03-01T10:15:45.137Z,-3.93
2018-03-01T10:16:45.280Z,-3.91
2018-03-01T10:17:45.142Z,-4.02
2018-03-01T10:18:45.626Z,-3.71
2018-03-01T10:19:45.151Z,-3.04
2018-03-01T10:20:45.205Z,-3.39
2018-03-01T10:21:45.155Z,-3.81
2018-03-01T10:22:45.881Z,-4.23
2018-03-01T10:23:45.197Z,-4.05
2018-03-01T10:24:45.210Z,-4.12
2018-03-01T10:25:45.164Z,-3.64
2018-03-01T10:26:46.217Z,-2.96
2018-03-01T10:27:45.195Z,-3.41
2018-03-01T10:28:45.173Z,-3.65
2018-03-01T10:29:45.216Z,-3.90
2018-03-01T10:30:47.118Z,-3.57
2018-03-01T10:31:45.185Z,-3.38
2018-03-01T10:32:45.220Z,-2.69
2018-03-01T10:33:45.265Z,-2.75
2018-03-01T10:34:45.244Z,-3.54
2018-03-01T10:35:45.313Z,-3.51
2018-03-01T10:36:45.315Z,-2.92
2018-03-01T10:37:45.210Z,-3.57
2018-03-01T10:38:45.830Z,-3.17
2018-03-01T10:39:45.278Z,-3.81
2018-03-01T10:40:45.427Z,-3.76
2018-03-01T10:41:45.221Z,-3.81
2018-03-01T10:42:45.226Z,-3.25
2018-03-01T10:43:45.336Z,-3.04
2018-03-01T10:44:45.280Z,-2.69
2018-03-01T10:45:45.240Z,-2.97
2018-03-01T10:46:45.243Z,-3.11
2018-03-01T10:47:45.244Z,-3.13
2018-03-01T10:48:45.250Z,-2.42
2018-03-01T10:49:45.389Z,-2.58
2018-03-01T10:50:45.273Z,-2.75
2018-03-01T10:51:45.266Z,-2.50
2018-03-01T10:52:45.270Z,-2.99
2018-03-01T10:53:45.268Z,-2.76
2018-03-01T10:54:45.276Z,-2.61
2018-03-01T10:55:45.321Z,-3.02
2018-03-01T10:56:45.278Z,-3.07
2018-03-01T10:57:45.286Z,-3.44
2018-03-01T10:58:45.286Z,-3.07
2018-03-01T10:59:45.293Z,-2.97
2018-03-01T11:00:45.342Z,-2.50
2018-03-01T11:01:45.300Z,-2.58
2018-03-01T11:02:45.308Z,-2.61
2018-03-01T11:03:45.307Z,-2.82
2018-03-01T11:04:45.312Z,-2.56
2018-03-01T11:05:45.364Z,-2.39
2018-03-01T11:06:45.323Z,-2.76
2018-03-01T11:07:45.329Z,-2.42
2018-03-01T11:08:45.332Z,-2.38
2018-03-01T11:09:45.334Z,-1.96
2018-03-01T11:10:45.393Z,-2.13
2018-03-01T11:11:45.344Z,-2.33
2018-03-01T11:12:45.351Z,-2.02
2018-03-01T11:13:45.355Z,-1.93
2018-03-01T11:14:45.405Z,-2.58
2018-03-01T11:15:45.403Z,-2.72
2018-03-01T11:16:45.371Z,-2.79
2018-03-01T11:17:45.375Z,-2.72
2018-03-01T11:18:45.379Z,-1.96
2018-03-01T11:19:45.510Z,-1.81
2018-03-01T11:20:45.426Z,-1.72
2018-03-01T11:21:46.195Z,-2.35
2018-03-01T11:22:45.404Z,-2.76
2018-03-01T11:23:45.405Z,-2.93
2018-03-01T11:24:45.455Z,-3.02
2018-03-01T11:25:45.417Z,-2.78
2018-03-01T11:26:45.419Z,-2.82
2018-03-01T11:27:45.424Z,-2.61
2018-03-01T11:28:45.427Z,-2.14
2018-03-01T11:29:45.495Z,-1.84
2018-03-01T11:30:45.439Z,-2.33
2018-03-01T11:31:45.443Z,-2.60
2018-03-01T11:32:45.453Z,-2.96
2018-03-01T11:33:45.457Z,-2.81
2018-03-01T11:34:45.538Z,-2.20
2018-03-01T11:35:45.509Z,-2.11
2018-03-01T11:36:45.468Z,-2.39
2018-03-01T11:37:45.472Z,-2.35
2018-03-01T11:38:45.481Z,-1.51
2018-03-01T11:39:45.482Z,-1.64
2018-03-01T11:40:45.524Z,-2.20
2018-03-01T11:41:45.495Z,-2.61
2018-03-01T11:42:45.498Z,-2.26
2018-03-01T11:43:45.502Z,-1.82
2018-03-01T11:44:45.511Z,-2.03
2018-03-01T11:45:45.557Z,-1.80
2018-03-01T11:46:45.517Z,-2.05
2018-03-01T11:47:45.523Z,-2.60
2018-03-01T11:48:45.527Z,-2.23
2018-03-01T11:49:45.537Z,-1.82
2018-03-01T11:50:46.581Z,-1.62
2018-03-01T11:51:45.584Z,-1.93
2018-03-01T11:52:45.550Z,-1.92
2018-03-01T11:53:45.558Z,-1.23
2018-03-01T11:54:45.561Z,-1.36
2018-03-01T11:55:45.565Z,-2.06
2018-03-01T11:56:45.606Z,-1.59
2018-03-01T11:57:45.575Z,-1.24
2018-03-01T11:58:45.580Z,-1.53
2018-03-01T11:59:45.584Z,-1.54
2018-03-01T12:00:45.591Z,-1.45
2018-03-01T12:01:45.638Z,-1.43
2018-03-01T12:02:45.601Z,-1.07
2018-03-01T12:03:45.606Z,-1.60
2018-03-01T12:04:45.611Z,-1.20
2018-03-01T12:05:45.661Z,-1.38
2018-03-01T12:06:45.623Z,-1.02
2018-03-01T12:07:45.629Z,-1.02
2018-03-01T12:08:45.635Z,-1.18
2018-03-01T12:09:45.640Z,-1.41
2018-03-01T12:10:45.685Z,-1.24
2018-03-01T12:11:45.650Z,-1.43
2018-03-01T12:12:45.659Z,-0.91
2018-03-01T12:13:45.659Z,-1.41
2018-03-01T12:14:45.669Z,-1.95
2018-03-01T12:15:45.711Z,-1.90
2018-03-01T12:16:45.676Z,-1.60
2018-03-01T12:17:45.682Z,-1.41
2018-03-01T12:18:45.686Z,-1.24
2018-03-01T12:19:45.693Z,-1.33
2018-03-01T12:20:45.735Z,-1.53
2018-03-01T12:21:45.937Z,-1.25
2018-03-01T12:22:45.708Z,-1.64
2018-03-01T12:23:45.712Z,-1.31
2018-03-01T12:24:45.717Z,-1.43
2018-03-01T12:25:45.775Z,-1.02
2018-03-01T12:26:45.729Z,-1.41
2018-03-01T12:27:45.729Z,-1.15
2018-03-01T12:28:45.736Z,-0.87
2018-03-01T12:29:45.741Z,-1.02
2018-03-01T12:30:45.784Z,-1.38
2018-03-01T12:31:45.751Z,-1.38
2018-03-01T12:32:45.757Z,-1.62
2018-03-01T12:33:45.760Z,-1.36
2018-03-01T12:34:45.775Z,-1.09
2018-03-01T12:35:45.845Z,-1.49
2018-03-01T12:36:45.792Z,-2.14
2018-03-01T12:37:45.799Z,-1.80
2018-03-01T12:38:45.844Z,-1.15
2018-03-01T12:39:45.825Z,-1.72